createdAt,value
2023-03-11T00:01:41.467Z,100.00
2023-03-11T00:04:13.476Z,100.00
2023-03-11T00:10:01.049Z,100.00
2023-03-11T00:12:33.562Z,100.00
2023-03-11T00:15:09.441Z,100.00
2023-03-11T00:17:42.208Z,100.00
2023-03-11T00:20:21.686Z,100.00
2023-03-11T00:22:54.466Z,100.00
2023-03-11T00:25:29.109Z,100.00
2023-03-11T00:28:02.204Z,100.00
2023-03-11T00:30:53.577Z,100.00
2023-03-11T00:33:26.834Z,100.00
2023-03-11T00:35:59.194Z,100.00
2023-03-11T00:38:31.543Z,100.00
2023-03-11T00:41:10.821Z,100.00
2023-03-11T00:43:42.769Z,100.00
2023-03-11T00:46:16.671Z,100.00
2023-03-11T00:48:49.317Z,100.00
2023-03-11T00:51:25.678Z,100.00
2023-03-11T00:53:57.278Z,100.00
2023-03-11T00:56:28.611Z,100.00
2023-03-11T00:59:00.357Z,100.00
2023-03-11T01:01:34.277Z,100.00
2023-03-11T01:04:05.758Z,100.00
2023-03-11T01:06:45.169Z,100.00
2023-03-11T01:09:17.438Z,100.00
2023-03-11T01:11:49.136Z,100.00
2023-03-11T01:14:21.003Z,100.00
2023-03-11T01:16:55.567Z,100.00
2023-03-11T01:19:27.253Z,100.00
2023-03-11T01:21:59.044Z,100.00
2023-03-11T01:24:30.583Z,100.00
2023-03-11T01:27:01.810Z,100.00
2023-03-11T01:29:33.478Z,100.00
2023-03-11T01:32:08.916Z,100.00
2023-03-11T01:34:40.459Z,100.00
2023-03-11T01:37:11.801Z,100.00
2023-03-11T01:39:43.663Z,100.00
2023-03-11T01:42:14.957Z,100.00
2023-03-11T01:47:50.121Z,100.00
2023-03-11T01:50:22.142Z,100.00
2023-03-11T01:52:53.580Z,100.00
2023-03-11T01:55:26.618Z,100.00
2023-03-11T01:57:58.719Z,100.00
2023-03-11T02:00:30.802Z,100.00
2023-03-11T02:03:10.404Z,100.00
2023-03-11T02:05:43.906Z,100.00
2023-03-11T02:08:17.814Z,100.00
2023-03-11T02:10:53.249Z,100.00
2023-03-11T02:13:24.710Z,100.00
2023-03-11T02:15:56.590Z,100.00
2023-03-11T02:18:32.131Z,100.00
2023-03-11T02:21:14.614Z,100.00
2023-03-11T02:23:55.613Z,100.00
2023-03-11T02:26:34.338Z,100.00
2023-03-11T02:29:15.359Z,100.00
2023-03-11T02:31:48.744Z,100.00
2023-03-11T02:34:29.237Z,100.00
2023-03-11T02:37:02.853Z,100.00
2023-03-11T02:39:36.115Z,100.00
2023-03-11T02:42:14.084Z,100.00
2023-03-11T02:44:54.598Z,100.00
2023-03-11T02:47:27.392Z,100.00
2023-03-11T02:50:00.213Z,100.00
2023-03-11T02:52:35.238Z,100.00
2023-03-11T02:55:07.361Z,100.00
2023-03-11T02:57:39.830Z,100.00
2023-03-11T03:00:18.562Z,100.00
2023-03-11T03:02:52.466Z,100.00
2023-03-11T03:05:25.747Z,100.00
2023-03-11T03:07:57.995Z,100.00
2023-03-11T03:10:31.006Z,100.00
2023-03-11T03:13:02.838Z,100.00
2023-03-11T03:15:36.813Z,100.00
2023-03-11T03:18:08.526Z,100.00
2023-03-11T03:20:40.054Z,100.00
2023-03-11T03:23:11.575Z,100.00
2023-03-11T03:25:47.205Z,100.00
2023-03-11T03:28:18.770Z,100.00
2023-03-11T03:30:53.022Z,100.00
2023-03-11T03:33:25.080Z,100.00
2023-03-11T03:35:56.138Z,100.00
2023-03-11T03:38:28.345Z,100.00
2023-03-11T03:41:00.182Z,100.00
2023-03-11T03:43:31.412Z,100.00
2023-03-11T03:46:08.438Z,100.00
2023-03-11T03:48:39.962Z,100.00
2023-03-11T03:51:14.124Z,100.00
2023-03-11T03:53:46.815Z,100.00
2023-03-11T03:56:20.155Z,100.00
2023-03-11T03:58:54.169Z,100.00
2023-03-11T04:01:30.804Z,100.00
2023-03-11T04:04:02.620Z,100.00
2023-03-11T04:06:33.889Z,100.00
2023-03-11T04:09:05.288Z,100.00
2023-03-11T04:11:36.514Z,100.00
2023-03-11T04:14:09.233Z,100.00
2023-03-11T04:16:44.005Z,100.00
2023-03-11T04:19:15.575Z,100.00
2023-03-11T04:21:46.921Z,100.00
2023-03-11T04:24:18.699Z,100.00
2023-03-11T04:26:49.991Z,100.00
2023-03-11T04:29:21.655Z,100.00
2023-03-11T04:31:55.689Z,100.00
2023-03-11T04:34:27.315Z,100.00
2023-03-11T04:36:58.835Z,100.00
2023-03-11T04:39:30.200Z,100.00
2023-03-11T04:42:03.879Z,100.00
2023-03-11T04:44:38.981Z,100.00
2023-03-11T04:47:17.443Z,100.00
2023-03-11T04:49:49.301Z,100.00
2023-03-11T04:52:20.575Z,100.00
2023-03-11T04:54:53.555Z,100.00
2023-03-11T04:57:25.089Z,100.00
2023-03-11T04:59:57.901Z,100.00
2023-03-11T05:02:32.402Z,100.00
2023-03-11T05:05:05.157Z,100.00
2023-03-11T05:07:36.895Z,100.00
2023-03-11T05:10:09.949Z,100.00
2023-03-11T05:12:41.914Z,100.00
2023-03-11T05:15:14.691Z,100.00
2023-03-11T05:17:49.915Z,100.00
2023-03-11T05:20:22.201Z,100.00
2023-03-11T05:22:54.246Z,100.00
2023-03-11T05:25:26.876Z,100.00
2023-03-11T05:27:59.221Z,100.00
2023-03-11T05:30:31.655Z,100.00
2023-03-11T05:33:06.662Z,100.00
2023-03-11T05:35:39.666Z,100.00
2023-03-11T05:38:11.948Z,100.00
2023-03-11T05:40:44.825Z,100.00
2023-03-11T05:43:16.837Z,100.00
2023-03-11T05:45:49.364Z,100.00
2023-03-11T05:48:26.821Z,100.00
2023-03-11T05:50:59.958Z,100.00
2023-03-11T05:53:31.698Z,100.00
2023-03-11T05:56:04.426Z,100.00
2023-03-11T05:58:36.539Z,100.00
2023-03-11T06:01:12.268Z,100.00
2023-03-11T06:03:46.826Z,100.00
2023-03-11T06:06:19.476Z,100.00
2023-03-11T06:08:50.648Z,100.00
2023-03-11T06:11:24.284Z,100.00
2023-03-11T06:13:56.738Z,100.00
2023-03-11T06:16:30.524Z,100.00
2023-03-11T06:19:04.593Z,100.00
2023-03-11T06:21:36.915Z,100.00
2023-03-11T06:24:09.841Z,100.00
2023-03-11T06:26:41.445Z,100.00
2023-03-11T06:29:17.358Z,100.00
2023-03-11T06:31:49.348Z,100.00
2023-03-11T06:34:23.910Z,100.00
2023-03-11T06:36:55.478Z,100.00
2023-03-11T06:39:27.007Z,100.00
2023-03-11T06:41:58.322Z,100.00
2023-03-11T06:44:29.457Z,100.00
2023-03-11T06:47:01.300Z,100.00
2023-03-11T06:49:34.948Z,100.00
2023-03-11T06:52:06.751Z,100.00
2023-03-11T06:54:38.974Z,100.00
2023-03-11T06:57:11.393Z,100.00
2023-03-11T06:59:43.385Z,100.00
2023-03-11T07:02:17.384Z,100.00
2023-03-11T07:04:52.487Z,100.00
2023-03-11T07:07:24.409Z,100.00
2023-03-11T07:09:58.448Z,100.00
2023-03-11T07:12:29.987Z,100.00
2023-03-11T07:15:02.339Z,100.00
2023-03-11T07:17:34.158Z,100.00
2023-03-11T07:20:09.638Z,100.00
2023-03-11T07:22:41.095Z,100.00
2023-03-11T07:25:12.811Z,100.00
2023-03-11T07:27:44.594Z,100.00
2023-03-11T07:30:18.199Z,100.00
2023-03-11T07:32:50.666Z,100.00
2023-03-11T07:35:24.897Z,100.00
2023-03-11T07:37:56.784Z,100.00
2023-03-11T07:40:27.863Z,100.00
2023-03-11T07:42:59.487Z,100.00
2023-03-11T07:45:32.031Z,100.00
2023-03-11T07:48:03.708Z,100.00
2023-03-11T07:50:37.668Z,100.00
2023-03-11T07:53:09.823Z,100.00
2023-03-11T07:55:41.270Z,100.00
2023-03-11T07:58:13.047Z,100.00
2023-03-11T08:00:47.812Z,100.00
2023-03-11T08:03:20.416Z,100.00
2023-03-11T08:05:54.850Z,100.00
2023-03-11T08:08:27.094Z,100.00
2023-03-11T08:11:07.401Z,100.00
2023-03-11T08:13:39.448Z,100.00
2023-03-11T08:16:14.073Z,100.00
2023-03-11T08:18:46.941Z,100.00
2023-03-11T08:21:24.767Z,100.00
2023-03-11T08:24:02.095Z,100.00
2023-03-11T08:26:34.607Z,100.00
2023-03-11T08:29:08.114Z,98.33
2023-03-11T08:31:40.741Z,98.26
2023-03-11T08:34:14.748Z,98.79
2023-03-11T08:36:49.571Z,93.46
2023-03-11T08:39:20.994Z,96.31
2023-03-11T08:41:52.597Z,96.40
2023-03-11T08:44:24.149Z,98.49
2023-03-11T08:46:55.804Z,98.68
2023-03-11T08:49:27.140Z,98.78
2023-03-11T08:52:01.967Z,97.75
2023-03-11T08:54:34.293Z,99.96
2023-03-11T08:57:06.351Z,99.13
2023-03-11T08:59:37.982Z,100.00
2023-03-11T09:02:09.725Z,100.00
2023-03-11T09:04:40.993Z,100.00
2023-03-11T09:07:15.517Z,98.59
2023-03-11T09:09:47.672Z,99.14
2023-03-11T09:12:19.075Z,98.21
2023-03-11T09:14:51.018Z,96.15
2023-03-11T09:17:22.462Z,96.19
2023-03-11T09:19:54.232Z,95.63
2023-03-11T09:22:28.330Z,98.31
2023-03-11T09:25:00.876Z,97.42
2023-03-11T09:27:32.655Z,96.82
2023-03-11T09:30:04.445Z,98.01
2023-03-11T09:32:39.329Z,96.10
2023-03-11T09:35:11.378Z,95.84
2023-03-11T09:37:45.616Z,95.86
2023-03-11T09:40:20.667Z,95.43
2023-03-11T09:43:05.063Z,93.25
2023-03-11T09:45:40.457Z,95.25
2023-03-11T09:48:23.513Z,98.52
2023-03-11T09:51:02.203Z,99.14
2023-03-11T09:53:43.827Z,100.00
2023-03-11T09:56:22.531Z,100.00
2023-03-11T09:58:57.886Z,100.00
2023-03-11T10:01:33.680Z,100.00
2023-03-11T10:04:12.276Z,100.00
2023-03-11T10:06:48.476Z,100.00
2023-03-11T10:09:37.045Z,100.00
2023-03-11T10:12:23.530Z,99.86
2023-03-11T10:15:09.701Z,99.04
2023-03-11T10:18:07.563Z,98.75
2023-03-11T10:20:49.741Z,99.55
2023-03-11T10:23:29.309Z,99.26
2023-03-11T10:26:14.997Z,97.41
2023-03-11T10:28:55.071Z,92.05
2023-03-11T10:31:30.392Z,91.99
2023-03-11T10:34:07.725Z,90.01
2023-03-11T10:36:46.506Z,92.56
2023-03-11T10:39:19.007Z,92.04
2023-03-11T10:41:57.327Z,91.68
2023-03-11T10:44:37.224Z,93.02
2023-03-11T10:47:10.026Z,91.67
2023-03-11T10:49:41.653Z,90.42
2023-03-11T10:52:13.479Z,87.06
2023-03-11T10:54:48.381Z,90.18
2023-03-11T10:57:28.570Z,90.78
2023-03-11T11:00:02.017Z,91.66
2023-03-11T11:02:35.716Z,92.16
2023-03-11T11:05:25.035Z,93.82
2023-03-11T11:08:07.338Z,94.31
2023-03-11T11:10:40.902Z,92.88
2023-03-11T11:13:26.705Z,91.25
2023-03-11T11:16:03.915Z,93.20
2023-03-11T11:18:38.746Z,92.14
2023-03-11T11:21:12.841Z,91.88
2023-03-11T11:23:46.353Z,92.80
2023-03-11T11:26:21.669Z,91.08
2023-03-11T11:29:10.590Z,91.31
2023-03-11T11:31:45.139Z,92.07
2023-03-11T11:34:41.458Z,93.61
2023-03-11T11:37:16.795Z,90.42
2023-03-11T11:39:52.585Z,90.04
2023-03-11T11:42:27.667Z,90.93
2023-03-11T11:45:07.528Z,87.97
2023-03-11T11:47:45.681Z,87.63
2023-03-11T11:50:32.321Z,88.23
2023-03-11T11:53:14.660Z,90.45
2023-03-11T11:55:52.822Z,89.78
2023-03-11T11:58:25.249Z,86.83
2023-03-11T12:01:10.663Z,85.91
2023-03-11T12:04:22.479Z,86.78
2023-03-11T12:07:04.163Z,85.28
2023-03-11T12:09:44.061Z,83.21
2023-03-11T12:12:28.536Z,80.53
2023-03-11T12:15:10.417Z,79.55
2023-03-11T12:17:48.079Z,78.18
2023-03-11T12:20:28.338Z,80.04
2023-03-11T12:23:20.489Z,82.64
2023-03-11T12:26:06.379Z,84.41
2023-03-11T12:28:44.219Z,85.19
2023-03-11T12:31:17.132Z,85.47
2023-03-11T12:33:54.205Z,86.02
2023-03-11T12:36:48.850Z,83.13
2023-03-11T12:39:32.839Z,81.34
2023-03-11T12:42:43.252Z,80.45
2023-03-11T12:45:50.725Z,79.02
2023-03-11T12:48:46.177Z,80.48
2023-03-11T12:51:44.550Z,80.64
2023-03-11T12:54:33.113Z,80.11
2023-03-11T12:57:34.361Z,80.68
2023-03-11T13:00:45.717Z,80.76
2023-03-11T13:03:51.167Z,83.94
2023-03-11T13:06:40.293Z,82.70
2023-03-11T13:09:20.268Z,80.10
2023-03-11T13:12:05.028Z,80.21
2023-03-11T13:14:51.566Z,81.13
2023-03-11T13:17:31.265Z,82.11
2023-03-11T13:20:08.046Z,81.24
2023-03-11T13:23:03.870Z,81.03
2023-03-11T13:25:51.247Z,82.17
2023-03-11T13:28:51.387Z,82.22
2023-03-11T13:31:56.377Z,81.39
2023-03-11T13:34:38.407Z,80.78
2023-03-11T13:37:25.568Z,78.33
2023-03-11T13:40:16.175Z,76.83
2023-03-11T13:42:56.928Z,79.31
2023-03-11T13:45:50.662Z,76.04
2023-03-11T13:48:32.457Z,75.21
2023-03-11T13:51:20.055Z,75.05
2023-03-11T13:54:24.482Z,75.33
2023-03-11T13:57:11.970Z,75.73
2023-03-11T13:59:46.331Z,75.17
2023-03-11T14:02:21.640Z,75.25
2023-03-11T14:04:56.427Z,72.39
2023-03-11T14:07:32.005Z,75.37
2023-03-11T14:10:55.860Z,73.20
2023-03-11T14:13:29.491Z,73.10
2023-03-11T14:16:11.234Z,73.49
2023-03-11T14:18:48.712Z,73.74
2023-03-11T14:21:23.578Z,76.45
2023-03-11T14:23:58.047Z,76.37
2023-03-11T14:26:34.423Z,76.88
2023-03-11T14:29:34.545Z,76.21
2023-03-11T14:32:28.302Z,76.11
2023-03-11T14:35:00.783Z,75.64
2023-03-11T14:37:36.337Z,73.36
2023-03-11T14:40:26.524Z,73.33
2023-03-11T14:43:02.028Z,72.48
2023-03-11T14:45:37.624Z,72.54
2023-03-11T14:48:18.424Z,72.08
2023-03-11T14:50:52.756Z,72.85
2023-03-11T14:53:28.529Z,72.04
2023-03-11T14:56:02.517Z,72.52
2023-03-11T14:58:37.387Z,72.15
2023-03-11T15:01:17.725Z,70.73
2023-03-11T15:03:54.910Z,70.36
2023-03-11T15:06:29.590Z,69.32
2023-03-11T15:09:05.067Z,70.29
2023-03-11T15:11:49.060Z,71.62
2023-03-11T15:14:33.417Z,73.02
2023-03-11T15:17:33.644Z,72.18
2023-03-11T15:20:25.880Z,73.03
2023-03-11T15:23:01.585Z,72.25
2023-03-11T15:25:36.913Z,73.76
2023-03-11T15:28:28.476Z,71.06
2023-03-11T15:31:19.618Z,68.82
2023-03-11T15:33:52.920Z,68.10
2023-03-11T15:36:39.956Z,67.45
2023-03-11T15:39:21.593Z,67.18
2023-03-11T15:42:03.793Z,67.79
2023-03-11T15:44:41.073Z,67.60
2023-03-11T15:47:18.341Z,68.20
2023-03-11T15:49:51.713Z,68.06
2023-03-11T15:52:26.555Z,67.49
2023-03-11T15:54:59.198Z,67.88
2023-03-11T15:57:33.057Z,66.80
2023-03-11T16:00:06.139Z,67.27
2023-03-11T16:02:38.718Z,67.97
2023-03-11T16:05:17.341Z,66.56
2023-03-11T16:07:53.180Z,66.38
2023-03-11T16:10:28.987Z,67.02
2023-03-11T16:13:01.285Z,66.78
2023-03-11T16:15:35.547Z,67.05
2023-03-11T16:18:09.910Z,66.96
2023-03-11T16:20:45.103Z,67.55
2023-03-11T16:23:23.759Z,68.60
2023-03-11T16:25:59.663Z,68.10
2023-03-11T16:28:32.213Z,69.24
2023-03-11T16:31:05.130Z,68.53
2023-03-11T16:33:39.166Z,68.69
2023-03-11T16:36:16.659Z,69.55
2023-03-11T16:38:54.151Z,69.68
2023-03-11T16:41:27.324Z,69.54
2023-03-11T16:44:00.896Z,69.95
2023-03-11T16:46:33.531Z,69.92
2023-03-11T16:49:05.694Z,70.29
2023-03-11T16:51:38.486Z,70.83
2023-03-11T16:54:13.556Z,71.69
2023-03-11T16:56:46.398Z,71.53
2023-03-11T16:59:18.686Z,71.82
2023-03-11T17:01:51.116Z,72.48
2023-03-11T17:04:23.527Z,72.62
2023-03-11T17:06:56.430Z,72.96
2023-03-11T17:09:31.345Z,72.38
2023-03-11T17:12:04.228Z,73.57
2023-03-11T17:14:36.911Z,73.48
2023-03-11T17:17:09.271Z,74.21
2023-03-11T17:19:41.236Z,74.46
2023-03-11T17:22:13.611Z,74.87
2023-03-11T17:24:48.313Z,75.56
2023-03-11T17:27:20.768Z,75.64
2023-03-11T17:29:53.476Z,75.96
2023-03-11T17:32:26.156Z,76.61
2023-03-11T17:34:58.288Z,76.49
2023-03-11T17:37:30.609Z,77.28
2023-03-11T17:40:05.748Z,78.09
2023-03-11T17:42:39.575Z,77.38
2023-03-11T17:45:13.277Z,77.87
2023-03-11T17:47:45.788Z,79.86
2023-03-11T17:50:18.536Z,80.50
2023-03-11T17:52:51.029Z,80.04
2023-03-11T17:55:26.595Z,80.50
2023-03-11T17:57:59.286Z,81.75
2023-03-11T18:00:31.511Z,82.23
2023-03-11T18:03:04.450Z,82.14
2023-03-11T18:05:38.484Z,82.07
2023-03-11T18:08:11.442Z,81.76
2023-03-11T18:10:53.061Z,83.17
2023-03-11T18:13:26.464Z,82.36
2023-03-11T18:16:02.289Z,82.55
2023-03-11T18:18:45.765Z,82.61
2023-03-11T18:21:20.262Z,84.18
2023-03-11T18:23:53.107Z,84.42
2023-03-11T18:26:29.442Z,84.86
2023-03-11T18:29:03.124Z,85.14
2023-03-11T18:31:35.486Z,85.06
2023-03-11T18:34:13.959Z,85.35
2023-03-11T18:36:45.901Z,85.16
2023-03-11T18:39:18.462Z,85.28
2023-03-11T18:41:53.045Z,85.29
2023-03-11T18:44:25.349Z,85.10
2023-03-11T18:46:59.220Z,85.38
2023-03-11T18:49:31.722Z,84.79
2023-03-11T18:52:03.560Z,85.03
2023-03-11T18:54:35.930Z,85.90
2023-03-11T18:57:10.591Z,85.84
2023-03-11T18:59:42.646Z,85.70
2023-03-11T19:02:15.121Z,85.81
2023-03-11T19:04:48.860Z,87.16
2023-03-11T19:07:20.703Z,86.27
2023-03-11T19:09:53.090Z,86.14
2023-03-11T19:12:29.905Z,85.10
2023-03-11T19:15:02.229Z,84.58
2023-03-11T19:17:34.290Z,84.93
2023-03-11T19:20:08.591Z,85.42
2023-03-11T19:22:40.914Z,85.67
2023-03-11T19:25:13.699Z,85.79
2023-03-11T19:27:48.261Z,85.39
2023-03-11T19:30:21.591Z,85.26
2023-03-11T19:32:53.646Z,85.09
2023-03-11T19:35:27.147Z,85.87
2023-03-11T19:37:59.549Z,85.05
2023-03-11T19:40:33.904Z,85.64
2023-03-11T19:43:08.658Z,85.97
2023-03-11T19:45:40.886Z,85.37
2023-03-11T19:48:13.330Z,86.19
2023-03-11T19:50:45.725Z,85.82
2023-03-11T19:53:18.319Z,85.11
2023-03-11T19:55:53.057Z,84.90
2023-03-11T19:58:30.808Z,85.82
2023-03-11T20:01:04.063Z,85.25
2023-03-11T20:03:35.877Z,85.73
2023-03-11T20:06:10.285Z,85.85
2023-03-11T20:08:42.359Z,85.83
2023-03-11T20:11:15.040Z,85.42
2023-03-11T20:13:50.521Z,85.91
2023-03-11T20:16:23.384Z,85.66
2023-03-11T20:18:55.555Z,85.74
2023-03-11T20:21:27.926Z,85.85
2023-03-11T20:24:00.237Z,86.22
2023-03-11T20:26:32.662Z,85.74
2023-03-11T20:29:08.178Z,85.63
2023-03-11T20:31:40.809Z,84.93
2023-03-11T20:34:13.570Z,84.97
2023-03-11T20:36:46.932Z,84.98
2023-03-11T20:39:19.112Z,85.00
2023-03-11T20:41:52.621Z,83.84
2023-03-11T20:44:27.837Z,84.29
2023-03-11T20:47:00.309Z,83.60
2023-03-11T20:49:32.783Z,84.39
2023-03-11T20:52:05.422Z,83.52
2023-03-11T20:54:37.634Z,83.15
2023-03-11T20:57:10.188Z,83.50
2023-03-11T20:59:44.913Z,83.19
2023-03-11T21:02:17.259Z,82.84
2023-03-11T21:04:49.747Z,83.08
2023-03-11T21:07:21.886Z,82.61
2023-03-11T21:09:55.172Z,83.59
2023-03-11T21:12:30.633Z,83.89
2023-03-11T21:15:05.676Z,83.15
2023-03-11T21:17:38.654Z,83.05
2023-03-11T21:20:11.546Z,83.02
2023-03-11T21:22:46.891Z,82.05
2023-03-11T21:25:19.376Z,83.25
2023-03-11T21:27:51.489Z,82.37
2023-03-11T21:30:26.100Z,81.45
2023-03-11T21:32:58.530Z,82.39
2023-03-11T21:35:32.058Z,81.79
2023-03-11T21:38:04.507Z,82.23
2023-03-11T21:40:36.444Z,81.73
2023-03-11T21:43:08.635Z,80.84
2023-03-11T21:45:43.366Z,80.99
2023-03-11T21:48:16.211Z,81.19
2023-03-11T21:50:49.022Z,80.77
2023-03-11T21:53:29.510Z,81.02
2023-03-11T21:56:04.335Z,80.83
2023-03-11T21:58:36.842Z,81.18
2023-03-11T22:01:12.293Z,80.50
2023-03-11T22:03:44.371Z,81.48
2023-03-11T22:06:16.438Z,80.80
2023-03-11T22:08:49.362Z,80.44
2023-03-11T22:11:21.359Z,80.10
2023-03-11T22:14:00.789Z,79.63
2023-03-11T22:16:42.888Z,79.91
2023-03-11T22:19:33.486Z,80.20
2023-03-11T22:22:05.390Z,79.70
2023-03-11T22:24:40.430Z,79.26
2023-03-11T22:27:14.620Z,79.23
2023-03-11T22:29:46.997Z,79.29
2023-03-11T22:32:45.120Z,79.57
2023-03-11T22:35:20.097Z,78.92
2023-03-11T22:37:52.096Z,78.94
2023-03-11T22:40:26.523Z,79.48
2023-03-11T22:42:58.515Z,79.48
2023-03-11T22:45:30.998Z,79.52
2023-03-11T22:48:05.906Z,79.13
2023-03-11T22:53:50.567Z,80.69
2023-03-11T22:56:23.182Z,80.97
2023-03-11T22:58:55.156Z,80.79
2023-03-11T23:01:27.508Z,80.82
2023-03-11T23:04:02.781Z,80.00
2023-03-11T23:06:35.158Z,80.68
2023-03-11T23:09:07.717Z,80.75
2023-03-11T23:11:40.483Z,81.57
2023-03-11T23:14:12.336Z,81.60
2023-03-11T23:16:44.415Z,80.98
2023-03-11T23:19:18.764Z,81.31
2023-03-11T23:21:50.636Z,81.54
2023-03-11T23:24:22.235Z,81.62
2023-03-11T23:26:54.196Z,81.42
2023-03-11T23:29:25.837Z,81.91
2023-03-11T23:31:57.882Z,82.42
2023-03-11T23:34:32.123Z,82.31
2023-03-11T23:37:05.497Z,81.87
2023-03-11T23:39:37.395Z,81.66
2023-03-11T23:42:24.444Z,81.25
2023-03-11T23:44:57.746Z,82.49
2023-03-11T23:47:29.722Z,82.03
2023-03-11T23:50:04.413Z,81.91
2023-03-11T23:52:36.774Z,82.59
2023-03-11T23:55:21.816Z,82.28
2023-03-11T23:57:54.233Z,82.21
